Aviation Digital Data Service (ADDS)

Output produced by METARs form (0846 UTC 21 October 2018)
found at http://aviationweather.gov/metar/data/
 
KGGG 210540Z 2106/2206 36006KT P6SM SKC 
     FM210900 03005KT P6SM SCT250 
     FM211500 07013KT P6SM SCT250 
     FM212000 04006KT P6SM SCT250 
     FM220000 04003KT P6SM SCT250